createdAt,value
2022-09-09T00:00:15.121Z,99888.28
2022-09-09T00:02:51.947Z,99879.22
2022-09-09T00:05:29.311Z,99889.66
2022-09-09T00:08:02.119Z,99882.63
2022-09-09T00:10:32.236Z,99884.38
2022-09-09T00:13:08.521Z,99878.78
2022-09-09T00:15:42.511Z,99881.69
2022-09-09T00:18:22.176Z,99883.38
2022-09-09T00:20:56.002Z,99883.59
2022-09-09T00:23:27.501Z,99883.44
2022-09-09T00:26:04.449Z,99875.97
2022-09-09T00:28:35.433Z,99877.16
2022-09-09T00:31:13.846Z,99872.66
2022-09-09T00:33:44.986Z,99874.94
2022-09-09T00:36:16.658Z,99872.53
2022-09-09T00:38:50.151Z,99870.97
2022-09-09T00:41:24.710Z,99867.81
2022-09-09T00:43:59.642Z,99875.97
2022-09-09T00:46:42.430Z,99869.34
2022-09-09T00:49:21.934Z,99865.53
2022-09-09T00:52:01.324Z,99869.97
2022-09-09T00:54:38.653Z,99873.78
2022-09-09T00:57:16.821Z,99865.25
2022-09-09T00:59:49.824Z,99874.81
2022-09-09T01:02:29.011Z,99867.59
2022-09-09T01:05:03.072Z,99857.00
2022-09-09T01:07:30.778Z,99859.88
2022-09-09T01:10:00.572Z,99860.09
2022-09-09T01:12:37.658Z,99858.09
2022-09-09T01:15:12.721Z,99860.41
2022-09-09T01:17:59.961Z,99865.84
2022-09-09T01:20:33.866Z,99859.28
2022-09-09T01:23:22.345Z,99851.28
2022-09-09T01:26:15.593Z,99853.44
2022-09-09T01:28:46.417Z,99860.78
2022-09-09T01:31:21.816Z,99858.69
2022-09-09T01:33:50.429Z,99863.81
2022-09-09T01:36:26.212Z,99856.59
2022-09-09T01:38:55.426Z,99870.53
2022-09-09T01:41:25.418Z,99870.03
2022-09-09T01:44:02.848Z,99863.19
2022-09-09T01:46:32.193Z,99860.38
2022-09-09T01:49:04.846Z,99857.84
2022-09-09T01:51:33.701Z,99860.56
2022-09-09T01:54:05.908Z,99857.25
2022-09-09T01:56:46.956Z,99854.94
2022-09-09T01:59:37.653Z,99848.53
2022-09-09T02:02:12.982Z,99850.84
2022-09-09T02:04:51.388Z,99866.88
2022-09-09T02:07:41.050Z,99865.69
2022-09-09T02:10:22.303Z,99870.78
2022-09-09T02:13:09.448Z,99875.59
2022-09-09T02:15:44.542Z,99877.06
2022-09-09T02:18:16.381Z,99879.22
2022-09-09T02:20:48.320Z,99876.41
2022-09-09T02:23:17.259Z,99876.69
2022-09-09T02:25:48.454Z,99880.97
2022-09-09T02:28:28.350Z,99877.72
2022-09-09T02:30:59.608Z,99873.31
2022-09-09T02:33:39.144Z,99877.34
2022-09-09T02:36:10.911Z,99870.34
2022-09-09T02:38:51.353Z,99875.94
2022-09-09T02:41:22.678Z,99866.50
2022-09-09T02:43:52.727Z,99866.81
2022-09-09T02:46:39.495Z,99861.91
2022-09-09T02:49:12.653Z,99859.06
2022-09-09T02:51:53.935Z,99859.28
2022-09-09T02:54:29.045Z,99855.22
2022-09-09T02:56:57.361Z,99849.97
2022-09-09T02:59:35.823Z,99840.19
2022-09-09T03:02:03.837Z,99853.13
2022-09-09T03:04:33.110Z,99856.78
2022-09-09T03:07:04.509Z,99851.16
2022-09-09T03:09:33.521Z,99853.25
2022-09-09T03:12:01.499Z,99853.91
2022-09-09T03:14:32.011Z,99860.28
2022-09-09T03:17:01.950Z,99859.94
2022-09-09T03:19:33.838Z,99856.16
2022-09-09T03:22:01.648Z,99869.50
2022-09-09T03:24:31.331Z,99875.34
2022-09-09T03:26:59.590Z,99868.97
2022-09-09T03:29:27.403Z,99864.16
2022-09-09T03:31:58.470Z,99871.91
2022-09-09T03:34:28.089Z,99875.16
2022-09-09T03:36:58.294Z,99886.09
2022-09-09T03:39:26.811Z,99887.41
2022-09-09T03:41:55.188Z,99880.91
2022-09-09T03:44:23.439Z,99872.81
2022-09-09T03:46:51.238Z,99866.22
2022-09-09T03:49:21.137Z,99862.22
2022-09-09T03:51:51.597Z,99863.09
2022-09-09T03:54:20.722Z,99862.16
2022-09-09T03:56:48.723Z,99866.28
2022-09-09T03:59:17.583Z,99865.09
2022-09-09T04:01:46.336Z,99864.38
2022-09-09T04:04:14.253Z,99858.06
2022-09-09T04:06:42.389Z,99860.38
2022-09-09T04:09:11.766Z,99855.16
2022-09-09T04:11:39.735Z,99858.72
2022-09-09T04:14:07.939Z,99862.69
2022-09-09T04:16:38.351Z,99852.94
2022-09-09T04:19:07.604Z,99855.00
2022-09-09T04:21:36.837Z,99859.75
2022-09-09T04:24:04.635Z,99856.78
2022-09-09T04:26:35.019Z,99859.84
2022-09-09T04:29:03.725Z,99867.47
2022-09-09T04:31:32.069Z,99857.59
2022-09-09T04:34:03.235Z,99861.91
2022-09-09T04:36:31.151Z,99871.22
2022-09-09T04:39:02.504Z,99868.47
2022-09-09T04:41:32.324Z,99869.13
2022-09-09T04:44:03.511Z,99868.06
2022-09-09T04:46:31.426Z,99879.50
2022-09-09T04:48:59.547Z,99877.00
2022-09-09T04:51:32.191Z,99882.25
2022-09-09T04:54:00.252Z,99876.88
2022-09-09T04:56:29.171Z,99883.78
2022-09-09T04:58:59.382Z,99884.50
2022-09-09T05:01:42.554Z,99881.16
2022-09-09T05:04:10.581Z,99882.53
2022-09-09T05:06:38.564Z,99890.50
2022-09-09T05:09:07.030Z,99896.91
2022-09-09T05:11:37.013Z,99898.69
2022-09-09T05:14:12.457Z,99897.00
2022-09-09T05:16:41.852Z,99895.84
2022-09-09T05:19:10.015Z,99900.78
2022-09-09T05:21:45.609Z,99900.41
2022-09-09T05:24:14.785Z,99896.63
2022-09-09T05:26:43.880Z,99900.41
2022-09-09T05:29:11.730Z,99902.09
2022-09-09T05:31:40.311Z,99900.31
2022-09-09T05:34:15.546Z,99908.56
2022-09-09T05:36:43.716Z,99904.78
2022-09-09T05:39:12.991Z,99911.59
2022-09-09T05:41:40.935Z,99910.75
2022-09-09T05:44:08.865Z,99915.88
2022-09-09T05:46:40.115Z,99911.47
2022-09-09T05:49:09.210Z,99912.31
2022-09-09T05:51:39.502Z,99912.44
2022-09-09T05:54:11.859Z,99921.88
2022-09-09T05:56:46.169Z,99917.97
2022-09-09T05:59:17.339Z,99922.16
2022-09-09T06:01:46.292Z,99923.81
2022-09-09T06:04:23.292Z,99925.59
2022-09-09T06:06:53.707Z,99925.59
2022-09-09T06:09:24.341Z,99925.41
2022-09-09T06:11:52.159Z,99924.41
2022-09-09T06:14:22.862Z,99933.56
2022-09-09T06:16:52.781Z,99931.22
2022-09-09T06:19:27.349Z,99931.38
2022-09-09T06:21:59.523Z,99927.00
2022-09-09T06:24:31.207Z,99926.44
2022-09-09T06:27:01.267Z,99928.00
2022-09-09T06:29:33.592Z,99939.09
2022-09-09T06:32:03.447Z,99939.59
2022-09-09T06:34:32.540Z,99936.63
2022-09-09T06:37:03.078Z,99936.63
2022-09-09T06:39:37.778Z,99941.75
2022-09-09T06:42:06.282Z,99942.00
2022-09-09T06:45:13.072Z,99926.72
2022-09-09T06:47:50.478Z,99922.69
2022-09-09T06:50:20.804Z,99927.72
2022-09-09T06:52:52.715Z,99916.44
2022-09-09T06:55:21.731Z,99924.47
2022-09-09T06:57:50.025Z,99917.28
2022-09-09T07:00:23.585Z,99922.09
2022-09-09T07:02:53.305Z,99928.56
2022-09-09T07:05:22.365Z,99926.50
2022-09-09T07:07:52.880Z,99927.47
2022-09-09T07:10:21.502Z,99917.44
2022-09-09T07:12:53.881Z,99925.06
2022-09-09T07:15:24.605Z,99933.66
2022-09-09T07:17:54.006Z,99938.25
2022-09-09T07:20:22.711Z,99939.78
2022-09-09T07:22:57.673Z,99942.06
2022-09-09T07:25:25.672Z,99939.56
2022-09-09T07:27:59.093Z,99940.59
2022-09-09T07:30:28.110Z,99940.50
2022-09-09T07:32:58.063Z,99941.91
2022-09-09T07:35:27.917Z,99941.56
2022-09-09T07:37:59.269Z,99940.56
2022-09-09T07:40:28.870Z,99947.88
2022-09-09T07:42:57.167Z,99952.69
2022-09-09T07:45:25.146Z,99952.19
2022-09-09T07:47:53.703Z,99952.22
2022-09-09T07:50:22.372Z,99947.66
2022-09-09T07:52:52.410Z,99945.72
2022-09-09T07:55:21.974Z,99949.31
2022-09-09T07:57:50.133Z,99942.50
2022-09-09T08:00:19.935Z,99942.56
2022-09-09T08:02:53.114Z,99950.09
2022-09-09T08:05:21.477Z,99935.97
2022-09-09T08:07:50.486Z,99943.63
2022-09-09T08:10:19.439Z,99946.91
2022-09-09T08:13:07.914Z,99946.09
2022-09-09T08:15:39.534Z,99955.28
2022-09-09T08:18:11.451Z,99954.44
2022-09-09T08:20:40.099Z,99960.19
2022-09-09T08:23:08.549Z,99951.06
2022-09-09T08:25:36.466Z,99958.13
2022-09-09T08:28:06.058Z,99970.16
2022-09-09T08:30:34.443Z,99966.34
2022-09-09T08:33:02.428Z,99974.72
2022-09-09T08:35:33.446Z,99967.25
2022-09-09T08:38:01.455Z,99971.44
2022-09-09T08:40:36.962Z,99969.16
2022-09-09T08:43:08.149Z,99966.34
2022-09-09T08:45:43.659Z,99969.09
2022-09-09T08:48:30.750Z,99962.06
2022-09-09T08:51:03.002Z,99953.06
2022-09-09T08:53:44.454Z,99955.06
2022-09-09T08:56:16.449Z,99958.69
2022-09-09T08:58:57.694Z,99962.72
2022-09-09T09:02:02.680Z,99964.41
2022-09-09T09:05:03.238Z,99968.56
2022-09-09T09:07:45.837Z,99973.34
2022-09-09T09:10:42.823Z,99957.78
2022-09-09T09:13:18.020Z,99972.41
2022-09-09T09:15:54.057Z,99971.69
2022-09-09T09:18:23.112Z,99962.56
2022-09-09T09:21:04.932Z,99978.13
2022-09-09T09:23:43.663Z,99973.63
2022-09-09T09:26:12.867Z,99972.78
2022-09-09T09:28:42.777Z,99955.81
2022-09-09T09:31:17.295Z,99959.81
2022-09-09T09:33:53.750Z,99954.59
2022-09-09T09:36:34.953Z,99940.28
2022-09-09T09:41:57.429Z,99951.47
2022-09-09T09:44:28.336Z,99945.84
2022-09-09T09:47:09.768Z,99935.91
2022-09-09T09:49:38.467Z,99941.72
2022-09-09T09:52:08.182Z,99943.66
2022-09-09T09:54:42.473Z,99952.06
2022-09-09T09:57:13.080Z,99947.94
2022-09-09T09:59:43.734Z,99951.03
2022-09-09T10:02:26.544Z,99948.47
2022-09-09T10:05:07.408Z,99938.94
2022-09-09T10:07:41.890Z,99943.97
2022-09-09T10:10:22.978Z,99939.47
2022-09-09T10:13:06.658Z,99941.59
2022-09-09T10:15:46.641Z,99949.63
2022-09-09T10:18:34.482Z,99940.19
2022-09-09T10:21:12.659Z,99938.63
2022-09-09T10:23:57.143Z,99932.09
2022-09-09T10:26:37.649Z,99935.81
2022-09-09T10:29:33.545Z,99937.78
2022-09-09T10:32:20.954Z,99919.44
2022-09-09T10:34:59.616Z,99915.84
2022-09-09T10:37:44.542Z,99915.72
2022-09-09T10:40:31.441Z,99911.31
2022-09-09T10:43:11.755Z,99902.94
2022-09-09T10:45:51.508Z,99910.25
2022-09-09T10:48:33.604Z,99914.91
2022-09-09T10:51:20.659Z,99920.72
2022-09-09T10:54:00.666Z,99918.00
2022-09-09T10:56:30.062Z,99916.00
2022-09-09T10:59:02.521Z,99905.53
2022-09-09T11:01:34.537Z,99914.94
2022-09-09T11:04:07.461Z,99920.34
2022-09-09T11:06:42.320Z,99918.66
2022-09-09T11:09:18.057Z,99896.53
2022-09-09T11:11:54.972Z,99906.81
2022-09-09T11:14:35.368Z,99914.47
2022-09-09T11:17:12.940Z,99902.69
2022-09-09T11:19:43.052Z,99908.16
2022-09-09T11:22:30.283Z,99915.50
2022-09-09T11:25:04.245Z,99904.22
2022-09-09T11:27:38.866Z,99904.16
2022-09-09T11:30:32.349Z,99889.78
2022-09-09T11:33:56.204Z,99890.66
2022-09-09T11:36:45.248Z,99896.41
2022-09-09T11:39:39.455Z,99894.50
2022-09-09T11:42:09.154Z,99906.91
2022-09-09T11:47:17.609Z,99909.47
2022-09-09T11:49:47.587Z,99925.22
2022-09-09T11:52:26.511Z,99932.88
2022-09-09T11:54:58.958Z,99926.19
2022-09-09T11:57:32.825Z,99935.66
2022-09-09T12:00:01.495Z,99925.91
2022-09-09T12:02:50.569Z,99927.88
2022-09-09T12:05:21.009Z,99924.19
2022-09-09T12:07:55.830Z,99916.59
2022-09-09T12:10:30.712Z,99916.31
2022-09-09T12:13:11.108Z,99915.63
2022-09-09T12:15:49.516Z,99931.56
2022-09-09T12:18:24.478Z,99926.19
2022-09-09T12:21:01.469Z,99931.81
2022-09-09T12:23:39.602Z,99939.41
2022-09-09T12:26:34.367Z,99950.97
2022-09-09T12:29:13.983Z,99954.03
2022-09-09T12:31:48.971Z,99955.09
2022-09-09T12:34:20.518Z,99946.16
2022-09-09T12:36:56.858Z,99945.38
2022-09-09T12:39:32.098Z,99943.91
2022-09-09T12:42:06.244Z,99946.25
2022-09-09T12:44:34.763Z,99937.19
2022-09-09T12:47:04.996Z,99936.94
2022-09-09T12:49:40.057Z,99961.41
2022-09-09T12:52:11.175Z,99960.88
2022-09-09T12:54:39.629Z,99947.56
2022-09-09T12:57:14.494Z,99946.22
2022-09-09T12:59:46.097Z,99956.13
2022-09-09T13:02:21.494Z,99958.19
2022-09-09T13:04:51.505Z,99946.41
2022-09-09T13:07:20.585Z,99957.69
2022-09-09T13:09:50.104Z,99958.22
2022-09-09T13:12:21.948Z,99947.06
2022-09-09T13:14:53.017Z,99942.78
2022-09-09T13:17:24.185Z,99944.16
2022-09-09T13:19:53.782Z,99930.16
2022-09-09T13:22:33.867Z,99919.53
2022-09-09T13:25:04.637Z,99906.50
2022-09-09T13:27:35.860Z,99904.84
2022-09-09T13:30:03.713Z,99907.09
2022-09-09T13:32:32.482Z,99912.22
2022-09-09T13:35:02.360Z,99908.75
2022-09-09T13:37:35.225Z,99918.75
2022-09-09T13:40:04.113Z,99920.47
2022-09-09T13:42:37.074Z,99923.75
2022-09-09T13:45:06.224Z,99927.63
2022-09-09T13:47:36.419Z,99928.34
2022-09-09T13:50:21.214Z,99929.22
2022-09-09T13:52:50.087Z,99927.38
2022-09-09T13:55:17.875Z,99915.66
2022-09-09T13:57:54.744Z,99909.81
2022-09-09T14:00:23.473Z,99908.25
2022-09-09T14:02:51.619Z,99902.53
2022-09-09T14:05:21.664Z,99915.38
2022-09-09T14:07:53.186Z,99914.09
2022-09-09T14:10:25.831Z,99921.44
2022-09-09T14:12:55.773Z,99915.91
2022-09-09T14:15:23.734Z,99917.16
2022-09-09T14:17:53.157Z,99921.22
2022-09-09T14:20:21.523Z,99924.06
2022-09-09T14:22:49.429Z,99931.50
2022-09-09T14:25:17.282Z,99917.19
2022-09-09T14:27:46.850Z,99927.75
2022-09-09T14:30:16.591Z,99929.81
2022-09-09T14:32:44.577Z,99918.59
2022-09-09T14:35:13.376Z,99917.38
2022-09-09T14:37:41.756Z,99920.59
2022-09-09T14:40:10.463Z,99918.22
2022-09-09T14:42:38.332Z,99910.56
2022-09-09T14:45:07.490Z,99903.75
2022-09-09T14:47:37.400Z,99911.13
2022-09-09T14:50:06.173Z,99908.50
2022-09-09T14:52:34.286Z,99901.25
2022-09-09T14:55:02.209Z,99909.06
2022-09-09T14:57:30.070Z,99912.22
2022-09-09T14:59:58.583Z,99913.09
2022-09-09T15:02:26.474Z,99914.63
2022-09-09T15:04:58.211Z,99916.97
2022-09-09T15:07:26.298Z,99901.09
2022-09-09T15:09:55.274Z,99895.69
2022-09-09T15:12:23.961Z,99896.66
2022-09-09T15:14:53.202Z,99892.78
2022-09-09T15:17:21.733Z,99891.81
2022-09-09T15:19:51.042Z,99884.97
2022-09-09T15:22:20.631Z,99886.13
2022-09-09T15:24:48.486Z,99880.13
2022-09-09T15:27:16.545Z,99879.72
2022-09-09T15:29:45.118Z,99880.88
2022-09-09T15:32:13.056Z,99880.16
2022-09-09T15:34:41.189Z,99890.06
2022-09-09T15:37:14.066Z,99900.03
2022-09-09T15:39:43.617Z,99901.53
2022-09-09T15:42:12.121Z,99902.25
2022-09-09T15:44:43.805Z,99909.91
2022-09-09T15:47:14.454Z,99908.94
2022-09-09T15:49:42.532Z,99907.03
2022-09-09T15:52:12.645Z,99906.47
2022-09-09T15:54:41.131Z,99913.72
2022-09-09T15:57:13.786Z,99916.91
2022-09-09T15:59:42.305Z,99923.25
2022-09-09T16:02:11.853Z,99918.50
2022-09-09T16:04:39.806Z,99921.69
2022-09-09T16:07:08.072Z,99920.59
2022-09-09T16:09:36.963Z,99927.22
2022-09-09T16:12:08.874Z,99927.63
2022-09-09T16:14:39.551Z,99929.44
2022-09-09T16:17:08.062Z,99942.63
2022-09-09T16:19:36.502Z,99937.56
2022-09-09T16:22:05.070Z,99947.22
2022-09-09T16:24:32.938Z,99945.38
2022-09-09T16:27:02.146Z,99948.28
2022-09-09T16:29:29.933Z,99942.66
2022-09-09T16:32:03.543Z,99949.56
2022-09-09T16:34:32.208Z,99943.41
2022-09-09T16:36:59.986Z,99944.63
2022-09-09T16:39:27.844Z,99942.41
2022-09-09T16:41:55.863Z,99940.16
2022-09-09T16:44:24.315Z,99945.13
2022-09-09T16:46:58.098Z,99946.25
2022-09-09T16:49:29.265Z,99952.94
2022-09-09T16:52:00.398Z,99952.97
2022-09-09T16:54:29.927Z,99953.44
2022-09-09T16:56:58.536Z,99961.53
2022-09-09T16:59:27.417Z,99964.81
2022-09-09T17:01:55.473Z,99951.91
2022-09-09T17:04:27.288Z,99942.19
2022-09-09T17:06:58.136Z,99951.06
2022-09-09T17:09:31.970Z,99956.13
2022-09-09T17:12:00.883Z,99959.03
2022-09-09T17:14:29.472Z,99952.47
2022-09-09T17:17:13.713Z,99950.78
2022-09-09T17:19:46.869Z,99961.31
2022-09-09T17:22:17.733Z,99962.53
2022-09-09T17:24:46.657Z,99969.75
2022-09-09T17:27:14.768Z,99973.59
2022-09-09T17:29:44.663Z,99963.06
2022-09-09T17:32:13.095Z,99962.72
2022-09-09T17:34:40.970Z,99969.06
2022-09-09T17:37:09.078Z,99979.88
2022-09-09T17:39:38.408Z,99988.94
2022-09-09T17:42:08.329Z,99978.97
2022-09-09T17:44:36.279Z,99986.03
2022-09-09T17:47:05.310Z,99994.22
2022-09-09T17:49:33.265Z,99994.22
2022-09-09T17:52:01.189Z,99999.75
2022-09-09T17:54:29.388Z,100009.34
2022-09-09T17:57:00.334Z,100002.50
2022-09-09T17:59:28.350Z,100001.31
2022-09-09T18:01:56.638Z,100005.78
2022-09-09T18:04:25.144Z,99995.34
2022-09-09T18:06:54.161Z,100000.91
2022-09-09T18:09:25.242Z,99995.56
2022-09-09T18:11:56.324Z,99993.25
2022-09-09T18:14:28.715Z,99991.00
2022-09-09T18:16:56.540Z,99988.91
2022-09-09T18:19:26.421Z,99982.72
2022-09-09T18:21:57.454Z,99976.25
2022-09-09T18:24:28.487Z,99973.19
2022-09-09T18:26:56.274Z,99971.31
2022-09-09T18:29:26.260Z,99966.47
2022-09-09T18:31:55.217Z,99968.78
2022-09-09T18:34:25.514Z,99974.78
2022-09-09T18:36:56.162Z,99974.22
2022-09-09T18:39:27.583Z,99982.41
2022-09-09T18:41:59.585Z,99976.94
2022-09-09T18:44:31.308Z,99982.91
2022-09-09T18:46:59.609Z,99987.53
2022-09-09T18:49:28.205Z,99990.13
2022-09-09T18:51:56.482Z,99985.81
2022-09-09T18:54:26.308Z,99984.91
2022-09-09T18:56:54.231Z,99980.59
2022-09-09T18:59:24.827Z,99980.19
2022-09-09T19:01:55.313Z,99998.72
2022-09-09T19:04:31.958Z,100025.75
2022-09-09T19:07:00.195Z,100041.38
2022-09-09T19:09:31.115Z,100046.72
2022-09-09T19:12:01.096Z,100039.50
2022-09-09T19:14:30.177Z,100054.19
2022-09-09T19:17:00.375Z,100054.19
2022-09-09T19:19:30.393Z,100046.31
2022-09-09T19:21:58.766Z,100041.78
2022-09-09T19:24:28.694Z,100047.25
2022-09-09T19:26:58.658Z,100043.72
2022-09-09T19:29:28.947Z,100035.25
2022-09-09T19:34:49.207Z,100030.81
2022-09-09T19:37:18.647Z,100030.59
2022-09-09T19:39:47.397Z,100025.47
2022-09-09T19:42:16.130Z,100016.91
2022-09-09T19:44:44.416Z,100003.16
2022-09-09T19:47:15.003Z,100000.13
2022-09-09T19:49:46.917Z,99994.13
2022-09-09T19:52:16.319Z,99999.81
2022-09-09T19:54:47.540Z,99995.63
2022-09-09T19:57:15.668Z,99992.16
2022-09-09T19:59:43.942Z,99994.56
2022-09-09T20:02:16.616Z,99992.34
2022-09-09T20:04:44.802Z,99995.41
2022-09-09T20:07:12.880Z,100002.94
2022-09-09T20:09:40.869Z,100007.34
2022-09-09T20:12:09.924Z,100006.59
2022-09-09T20:14:39.845Z,100006.81
2022-09-09T20:17:08.025Z,100004.19
2022-09-09T20:19:37.346Z,100009.66
2022-09-09T20:22:05.585Z,99999.47
2022-09-09T20:24:33.322Z,99994.94
2022-09-09T20:27:01.229Z,99990.75
2022-09-09T20:29:29.592Z,99985.44
2022-09-09T20:31:58.694Z,99993.47
2022-09-09T20:34:28.139Z,99984.91
2022-09-09T20:36:59.240Z,99983.84
2022-09-09T20:39:27.768Z,99982.91
2022-09-09T20:41:55.558Z,99982.81
2022-09-09T20:44:24.993Z,99983.97
2022-09-09T20:46:57.183Z,99981.13
2022-09-09T20:49:25.656Z,99992.53
2022-09-09T20:51:55.070Z,99985.63
2022-09-09T20:54:26.299Z,99988.66
2022-09-09T20:56:55.520Z,99984.91
2022-09-09T20:59:25.261Z,99988.13
2022-09-09T21:01:53.947Z,99990.44
2022-09-09T21:04:23.005Z,99984.06
2022-09-09T21:06:51.474Z,99987.59
2022-09-09T21:09:23.048Z,99985.28
2022-09-09T21:11:53.406Z,99986.47
2022-09-09T21:14:21.278Z,99991.06
2022-09-09T21:16:49.070Z,99990.97
2022-09-09T21:19:16.924Z,99994.84
2022-09-09T21:21:45.337Z,99993.69
2022-09-09T21:24:13.187Z,99987.81
2022-09-09T21:26:41.353Z,99985.91
2022-09-09T21:29:10.666Z,99984.03
2022-09-09T21:31:39.228Z,99980.34
2022-09-09T21:34:07.410Z,99992.81
2022-09-09T21:36:35.437Z,99992.50
2022-09-09T21:39:03.206Z,99992.59
2022-09-09T21:41:31.126Z,99987.28
2022-09-09T21:43:59.355Z,99983.50
2022-09-09T21:46:29.325Z,99983.50
2022-09-09T21:48:58.416Z,99942.31
2022-09-09T21:51:26.830Z,99955.41
2022-09-09T21:53:56.772Z,99958.88
2022-09-09T21:56:26.684Z,99959.94
2022-09-09T21:58:59.034Z,99956.47
2022-09-09T22:01:28.354Z,99956.66
2022-09-09T22:03:56.341Z,99956.66
2022-09-09T22:06:24.525Z,99951.13
2022-09-09T22:08:52.369Z,99945.16
2022-09-09T22:11:22.188Z,99941.59
2022-09-09T22:13:50.649Z,99938.88
2022-09-09T22:16:20.667Z,99934.06
2022-09-09T22:18:53.411Z,99938.03
2022-09-09T22:21:22.991Z,99936.84
2022-09-09T22:23:54.650Z,99949.13
2022-09-09T22:26:22.644Z,99937.06
2022-09-09T22:28:50.761Z,99935.72
2022-09-09T22:31:18.664Z,99934.16
2022-09-09T22:33:46.844Z,99940.34
2022-09-09T22:36:16.147Z,99942.88
2022-09-09T22:38:43.949Z,99941.28
2022-09-09T22:41:12.597Z,99940.88
2022-09-09T22:43:43.330Z,99942.03
2022-09-09T22:46:11.522Z,99945.03
2022-09-09T22:48:40.084Z,99939.63
2022-09-09T22:51:10.353Z,99949.47
2022-09-09T22:53:40.766Z,99942.63
2022-09-09T22:56:14.000Z,99951.03
2022-09-09T22:58:42.145Z,99952.03
2022-09-09T23:01:12.109Z,99951.94
2022-09-09T23:03:42.094Z,99942.00
2022-09-09T23:06:12.630Z,99942.22
2022-09-09T23:08:42.112Z,99952.91
2022-09-09T23:11:13.630Z,99942.31
2022-09-09T23:13:43.699Z,99948.69
2022-09-09T23:16:12.524Z,99950.69
2022-09-09T23:18:41.393Z,99950.06
2022-09-09T23:21:09.422Z,99951.63
2022-09-09T23:23:37.547Z,99950.28
2022-09-09T23:26:07.561Z,99951.53
2022-09-09T23:28:37.232Z,99954.88
2022-09-09T23:31:09.704Z,99961.59
2022-09-09T23:33:38.314Z,99968.09
2022-09-09T23:36:09.185Z,99964.53
2022-09-09T23:38:37.935Z,99966.31
2022-09-09T23:41:09.564Z,99970.59
2022-09-09T23:43:39.463Z,99970.81
2022-09-09T23:46:08.720Z,99965.81
2022-09-09T23:48:39.231Z,99962.69
2022-09-09T23:51:09.409Z,99966.09
2022-09-09T23:53:37.296Z,99979.28
2022-09-09T23:56:07.533Z,99970.50
2022-09-09T23:58:35.652Z,99975.84
